sensor_id;sensor_type;location;lat;lon;timestamp;P1;durP1;ratioP1;P2;durP2;ratioP2
51981;SDS011;37998;53.416;6.730;2024-01-30T00:01:53;30.58;;;19.45;;
51981;SDS011;37998;53.416;6.730;2024-01-30T00:04:19;25.25;;;18.17;;
51981;SDS011;37998;53.416;6.730;2024-01-30T00:06:44;25.02;;;19.20;;
51981;SDS011;37998;53.416;6.730;2024-01-30T00:09:11;23.48;;;18.15;;
51981;SDS011;37998;53.416;6.730;2024-01-30T00:11:37;25.80;;;18.65;;
51981;SDS011;37998;53.416;6.730;2024-01-30T00:14:03;24.60;;;19.73;;
51981;SDS011;37998;53.416;6.730;2024-01-30T00:16:30;20.80;;;18.23;;
51981;SDS011;37998;53.416;6.730;2024-01-30T00:18:56;22.05;;;18.73;;
51981;SDS011;37998;53.416;6.730;2024-01-30T00:21:22;25.60;;;19.70;;
51981;SDS011;37998;53.416;6.730;2024-01-30T00:23:48;21.80;;;19.00;;
51981;SDS011;37998;53.416;6.730;2024-01-30T00:26:14;22.73;;;18.48;;
51981;SDS011;37998;53.416;6.730;2024-01-30T00:28:41;28.60;;;18.95;;
51981;SDS011;37998;53.416;6.730;2024-01-30T00:31:07;27.45;;;19.60;;
51981;SDS011;37998;53.416;6.730;2024-01-30T00:33:40;20.83;;;18.60;;
51981;SDS011;37998;53.416;6.730;2024-01-30T00:36:07;22.83;;;19.05;;
51981;SDS011;37998;53.416;6.730;2024-01-30T00:38:34;24.35;;;19.75;;
51981;SDS011;37998;53.416;6.730;2024-01-30T00:41:00;22.05;;;18.75;;
51981;SDS011;37998;53.416;6.730;2024-01-30T00:43:30;25.25;;;17.73;;
51981;SDS011;37998;53.416;6.730;2024-01-30T00:45:56;25.45;;;20.33;;
51981;SDS011;37998;53.416;6.730;2024-01-30T00:48:23;23.73;;;19.90;;
51981;SDS011;37998;53.416;6.730;2024-01-30T00:50:49;24.45;;;19.00;;
51981;SDS011;37998;53.416;6.730;2024-01-30T00:53:15;27.05;;;19.38;;
51981;SDS011;37998;53.416;6.730;2024-01-30T00:55:41;24.52;;;20.08;;
51981;SDS011;37998;53.416;6.730;2024-01-30T00:58:06;24.52;;;19.10;;
51981;SDS011;37998;53.416;6.730;2024-01-30T01:00:33;26.27;;;18.55;;
51981;SDS011;37998;53.416;6.730;2024-01-30T01:02:59;26.15;;;20.55;;
51981;SDS011;37998;53.416;6.730;2024-01-30T01:05:25;29.58;;;20.23;;
51981;SDS011;37998;53.416;6.730;2024-01-30T01:07:51;24.50;;;20.35;;
51981;SDS011;37998;53.416;6.730;2024-01-30T01:10:17;26.63;;;19.50;;
51981;SDS011;37998;53.416;6.730;2024-01-30T01:12:43;26.45;;;19.17;;
51981;SDS011;37998;53.416;6.730;2024-01-30T01:15:09;29.15;;;20.80;;
51981;SDS011;37998;53.416;6.730;2024-01-30T01:17:36;25.67;;;19.92;;
51981;SDS011;37998;53.416;6.730;2024-01-30T01:20:03;27.17;;;20.83;;
51981;SDS011;37998;53.416;6.730;2024-01-30T01:22:33;24.75;;;19.77;;
51981;SDS011;37998;53.416;6.730;2024-01-30T01:24:59;27.30;;;20.45;;
51981;SDS011;37998;53.416;6.730;2024-01-30T01:27:26;23.30;;;19.77;;
51981;SDS011;37998;53.416;6.730;2024-01-30T01:29:52;23.90;;;19.83;;
51981;SDS011;37998;53.416;6.730;2024-01-30T01:32:18;24.83;;;19.27;;
51981;SDS011;37998;53.416;6.730;2024-01-30T01:34:44;21.60;;;19.27;;
51981;SDS011;37998;53.416;6.730;2024-01-30T01:37:11;26.33;;;19.27;;
51981;SDS011;37998;53.416;6.730;2024-01-30T01:39:36;27.58;;;20.65;;
51981;SDS011;37998;53.416;6.730;2024-01-30T01:42:02;24.83;;;19.95;;
51981;SDS011;37998;53.416;6.730;2024-01-30T01:44:29;23.75;;;20.20;;
51981;SDS011;37998;53.416;6.730;2024-01-30T01:46:55;25.50;;;20.30;;
51981;SDS011;37998;53.416;6.730;2024-01-30T01:49:23;25.17;;;20.27;;
51981;SDS011;37998;53.416;6.730;2024-01-30T01:51:50;31.52;;;21.92;;
51981;SDS011;37998;53.416;6.730;2024-01-30T01:54:18;29.08;;;20.70;;
51981;SDS011;37998;53.416;6.730;2024-01-30T01:56:44;23.98;;;19.92;;
51981;SDS011;37998;53.416;6.730;2024-01-30T01:59:10;27.10;;;21.35;;
51981;SDS011;37998;53.416;6.730;2024-01-30T02:01:36;25.88;;;21.30;;
51981;SDS011;37998;53.416;6.730;2024-01-30T02:04:02;29.48;;;20.85;;
51981;SDS011;37998;53.416;6.730;2024-01-30T02:06:28;27.95;;;20.42;;
51981;SDS011;37998;53.416;6.730;2024-01-30T02:08:54;25.45;;;21.20;;
51981;SDS011;37998;53.416;6.730;2024-01-30T02:11:21;27.58;;;18.92;;
51981;SDS011;37998;53.416;6.730;2024-01-30T02:13:48;27.58;;;20.95;;
51981;SDS011;37998;53.416;6.730;2024-01-30T02:16:15;29.15;;;21.52;;
51981;SDS011;37998;53.416;6.730;2024-01-30T02:18:42;26.77;;;21.48;;
51981;SDS011;37998;53.416;6.730;2024-01-30T02:21:22;30.80;;;21.13;;
51981;SDS011;37998;53.416;6.730;2024-01-30T02:23:49;26.60;;;20.88;;
51981;SDS011;37998;53.416;6.730;2024-01-30T02:26:17;25.48;;;21.65;;
51981;SDS011;37998;53.416;6.730;2024-01-30T02:28:43;25.88;;;20.75;;
51981;SDS011;37998;53.416;6.730;2024-01-30T02:31:09;25.55;;;20.50;;
51981;SDS011;37998;53.416;6.730;2024-01-30T02:33:35;28.10;;;20.67;;
51981;SDS011;37998;53.416;6.730;2024-01-30T02:36:02;26.30;;;21.10;;
51981;SDS011;37998;53.416;6.730;2024-01-30T02:38:28;25.23;;;21.27;;
51981;SDS011;37998;53.416;6.730;2024-01-30T02:40:54;26.25;;;21.33;;
51981;SDS011;37998;53.416;6.730;2024-01-30T02:43:21;25.63;;;21.15;;
51981;SDS011;37998;53.416;6.730;2024-01-30T02:45:47;28.30;;;21.05;;
51981;SDS011;37998;53.416;6.730;2024-01-30T02:48:13;28.73;;;21.83;;
51981;SDS011;37998;53.416;6.730;2024-01-30T02:50:39;30.70;;;21.27;;
51981;SDS011;37998;53.416;6.730;2024-01-30T02:53:05;30.52;;;22.05;;
51981;SDS011;37998;53.416;6.730;2024-01-30T02:55:31;26.27;;;21.35;;
51981;SDS011;37998;53.416;6.730;2024-01-30T02:57:56;25.17;;;20.17;;
51981;SDS011;37998;53.416;6.730;2024-01-30T03:00:23;28.40;;;20.75;;
51981;SDS011;37998;53.416;6.730;2024-01-30T03:02:49;28.05;;;21.67;;
51981;SDS011;37998;53.416;6.730;2024-01-30T03:05:15;25.98;;;19.88;;
51981;SDS011;37998;53.416;6.730;2024-01-30T03:07:41;28.75;;;21.02;;
51981;SDS011;37998;53.416;6.730;2024-01-30T03:10:07;25.48;;;19.80;;
51981;SDS011;37998;53.416;6.730;2024-01-30T03:12:33;28.58;;;20.60;;
51981;SDS011;37998;53.416;6.730;2024-01-30T03:14:58;33.45;;;20.88;;
51981;SDS011;37998;53.416;6.730;2024-01-30T03:17:24;27.30;;;21.10;;
51981;SDS011;37998;53.416;6.730;2024-01-30T03:19:50;26.63;;;19.13;;
51981;SDS011;37998;53.416;6.730;2024-01-30T03:22:16;28.63;;;20.15;;
51981;SDS011;37998;53.416;6.730;2024-01-30T03:24:42;27.33;;;20.50;;
51981;SDS011;37998;53.416;6.730;2024-01-30T03:27:08;27.75;;;20.60;;
51981;SDS011;37998;53.416;6.730;2024-01-30T03:29:35;25.70;;;20.20;;
51981;SDS011;37998;53.416;6.730;2024-01-30T03:32:00;25.48;;;19.38;;
51981;SDS011;37998;53.416;6.730;2024-01-30T03:34:26;24.52;;;19.70;;
51981;SDS011;37998;53.416;6.730;2024-01-30T03:36:52;23.02;;;19.25;;
51981;SDS011;37998;53.416;6.730;2024-01-30T03:39:18;24.92;;;20.88;;
51981;SDS011;37998;53.416;6.730;2024-01-30T03:41:44;25.10;;;20.48;;
51981;SDS011;37998;53.416;6.730;2024-01-30T03:44:10;26.05;;;20.80;;
51981;SDS011;37998;53.416;6.730;2024-01-30T03:46:36;30.98;;;19.70;;
51981;SDS011;37998;53.416;6.730;2024-01-30T03:49:02;24.20;;;19.40;;
51981;SDS011;37998;53.416;6.730;2024-01-30T03:51:28;26.00;;;19.92;;
51981;SDS011;37998;53.416;6.730;2024-01-30T03:53:54;23.83;;;19.20;;
51981;SDS011;37998;53.416;6.730;2024-01-30T03:56:20;26.17;;;18.83;;
51981;SDS011;37998;53.416;6.730;2024-01-30T03:58:46;26.98;;;20.80;;
51981;SDS011;37998;53.416;6.730;2024-01-30T04:01:14;23.65;;;19.67;;
51981;SDS011;37998;53.416;6.730;2024-01-30T04:03:41;23.67;;;19.67;;
51981;SDS011;37998;53.416;6.730;2024-01-30T04:06:07;29.70;;;19.95;;
51981;SDS011;37998;53.416;6.730;2024-01-30T04:08:33;28.05;;;20.98;;
51981;SDS011;37998;53.416;6.730;2024-01-30T04:11:03;25.23;;;19.20;;
51981;SDS011;37998;53.416;6.730;2024-01-30T04:13:32;24.00;;;20.05;;
51981;SDS011;37998;53.416;6.730;2024-01-30T04:15:59;25.60;;;19.38;;
51981;SDS011;37998;53.416;6.730;2024-01-30T04:18:29;22.25;;;18.60;;
51981;SDS011;37998;53.416;6.730;2024-01-30T04:20:55;22.85;;;19.25;;
51981;SDS011;37998;53.416;6.730;2024-01-30T04:23:21;25.25;;;19.40;;
51981;SDS011;37998;53.416;6.730;2024-01-30T04:25:47;24.00;;;19.42;;
51981;SDS011;37998;53.416;6.730;2024-01-30T04:28:13;25.45;;;20.13;;
51981;SDS011;37998;53.416;6.730;2024-01-30T04:30:39;27.65;;;21.05;;
51981;SDS011;37998;53.416;6.730;2024-01-30T04:33:05;28.35;;;20.48;;
51981;SDS011;37998;53.416;6.730;2024-01-30T04:35:31;25.73;;;19.48;;
51981;SDS011;37998;53.416;6.730;2024-01-30T04:37:56;23.35;;;20.05;;
51981;SDS011;37998;53.416;6.730;2024-01-30T04:40:22;26.70;;;20.20;;
51981;SDS011;37998;53.416;6.730;2024-01-30T04:42:48;23.80;;;19.42;;
51981;SDS011;37998;53.416;6.730;2024-01-30T04:45:14;23.48;;;19.80;;
51981;SDS011;37998;53.416;6.730;2024-01-30T04:47:40;22.30;;;18.90;;
51981;SDS011;37998;53.416;6.730;2024-01-30T04:50:06;25.27;;;19.73;;
51981;SDS011;37998;53.416;6.730;2024-01-30T04:52:34;24.35;;;19.60;;
51981;SDS011;37998;53.416;6.730;2024-01-30T04:55:00;23.90;;;18.98;;
51981;SDS011;37998;53.416;6.730;2024-01-30T04:57:26;25.20;;;19.77;;
51981;SDS011;37998;53.416;6.730;2024-01-30T04:59:52;26.50;;;19.90;;
51981;SDS011;37998;53.416;6.730;2024-01-30T05:02:18;27.00;;;20.40;;
51981;SDS011;37998;53.416;6.730;2024-01-30T05:04:44;24.75;;;19.73;;
51981;SDS011;37998;53.416;6.730;2024-01-30T05:07:09;25.58;;;19.00;;
51981;SDS011;37998;53.416;6.730;2024-01-30T05:09:35;24.95;;;19.80;;
51981;SDS011;37998;53.416;6.730;2024-01-30T05:12:02;25.15;;;20.73;;
51981;SDS011;37998;53.416;6.730;2024-01-30T05:14:28;23.60;;;18.80;;
51981;SDS011;37998;53.416;6.730;2024-01-30T05:16:53;24.70;;;19.30;;
51981;SDS011;37998;53.416;6.730;2024-01-30T05:19:19;23.02;;;19.60;;
51981;SDS011;37998;53.416;6.730;2024-01-30T05:21:46;25.70;;;19.33;;
51981;SDS011;37998;53.416;6.730;2024-01-30T05:24:12;22.08;;;19.17;;
51981;SDS011;37998;53.416;6.730;2024-01-30T05:26:38;23.00;;;19.33;;
51981;SDS011;37998;53.416;6.730;2024-01-30T05:29:07;22.83;;;19.25;;
51981;SDS011;37998;53.416;6.730;2024-01-30T05:31:36;25.23;;;20.08;;
51981;SDS011;37998;53.416;6.730;2024-01-30T05:34:02;22.90;;;18.48;;
51981;SDS011;37998;53.416;6.730;2024-01-30T05:36:28;23.48;;;17.65;;
51981;SDS011;37998;53.416;6.730;2024-01-30T05:38:55;24.38;;;17.80;;
51981;SDS011;37998;53.416;6.730;2024-01-30T05:41:21;23.42;;;19.25;;
51981;SDS011;37998;53.416;6.730;2024-01-30T05:43:47;21.63;;;19.00;;
51981;SDS011;37998;53.416;6.730;2024-01-30T05:46:13;25.25;;;18.42;;
51981;SDS011;37998;53.416;6.730;2024-01-30T05:48:39;23.33;;;18.20;;
51981;SDS011;37998;53.416;6.730;2024-01-30T05:51:06;24.85;;;18.45;;
51981;SDS011;37998;53.416;6.730;2024-01-30T05:53:33;22.42;;;17.90;;
51981;SDS011;37998;53.416;6.730;2024-01-30T05:56:03;21.27;;;17.55;;
51981;SDS011;37998;53.416;6.730;2024-01-30T05:58:29;21.05;;;17.98;;
51981;SDS011;37998;53.416;6.730;2024-01-30T06:00:56;22.73;;;17.83;;
51981;SDS011;37998;53.416;6.730;2024-01-30T06:03:23;21.92;;;18.38;;
51981;SDS011;37998;53.416;6.730;2024-01-30T06:05:49;22.90;;;17.95;;
51981;SDS011;37998;53.416;6.730;2024-01-30T06:08:14;21.25;;;18.05;;
51981;SDS011;37998;53.416;6.730;2024-01-30T06:10:40;23.20;;;17.88;;
51981;SDS011;37998;53.416;6.730;2024-01-30T06:13:06;25.35;;;18.15;;
51981;SDS011;37998;53.416;6.730;2024-01-30T06:15:32;22.17;;;17.52;;
51981;SDS011;37998;53.416;6.730;2024-01-30T06:17:58;22.98;;;17.27;;
51981;SDS011;37998;53.416;6.730;2024-01-30T06:20:24;22.95;;;18.50;;
51981;SDS011;37998;53.416;6.730;2024-01-30T06:22:50;23.45;;;18.33;;
51981;SDS011;37998;53.416;6.730;2024-01-30T06:25:16;23.33;;;17.92;;
51981;SDS011;37998;53.416;6.730;2024-01-30T06:27:43;21.17;;;17.10;;
51981;SDS011;37998;53.416;6.730;2024-01-30T06:30:09;24.40;;;17.98;;
51981;SDS011;37998;53.416;6.730;2024-01-30T06:32:35;22.80;;;18.88;;
51981;SDS011;37998;53.416;6.730;2024-01-30T06:35:01;21.08;;;17.67;;
51981;SDS011;37998;53.416;6.730;2024-01-30T06:37:28;22.40;;;17.92;;
51981;SDS011;37998;53.416;6.730;2024-01-30T06:39:54;23.73;;;17.80;;
51981;SDS011;37998;53.416;6.730;2024-01-30T06:42:20;20.88;;;17.10;;
51981;SDS011;37998;53.416;6.730;2024-01-30T06:44:46;21.30;;;16.52;;
51981;SDS011;37998;53.416;6.730;2024-01-30T06:47:12;20.23;;;16.33;;
51981;SDS011;37998;53.416;6.730;2024-01-30T06:49:38;22.17;;;17.35;;
51981;SDS011;37998;53.416;6.730;2024-01-30T06:52:07;21.90;;;16.90;;
51981;SDS011;37998;53.416;6.730;2024-01-30T06:54:33;26.67;;;17.70;;
51981;SDS011;37998;53.416;6.730;2024-01-30T06:56:59;22.05;;;17.23;;
51981;SDS011;37998;53.416;6.730;2024-01-30T06:59:25;19.77;;;16.20;;
51981;SDS011;37998;53.416;6.730;2024-01-30T07:01:51;22.17;;;17.17;;
51981;SDS011;37998;53.416;6.730;2024-01-30T07:04:17;24.75;;;18.05;;
51981;SDS011;37998;53.416;6.730;2024-01-30T07:06:43;23.08;;;17.70;;
51981;SDS011;37998;53.416;6.730;2024-01-30T07:09:09;20.48;;;17.67;;
51981;SDS011;37998;53.416;6.730;2024-01-30T07:11:35;22.50;;;16.98;;
51981;SDS011;37998;53.416;6.730;2024-01-30T07:14:01;20.95;;;16.58;;
51981;SDS011;37998;53.416;6.730;2024-01-30T07:16:30;19.70;;;16.23;;
51981;SDS011;37998;53.416;6.730;2024-01-30T07:18:56;20.83;;;16.63;;
51981;SDS011;37998;53.416;6.730;2024-01-30T07:21:22;19.38;;;16.27;;
51981;SDS011;37998;53.416;6.730;2024-01-30T07:23:56;20.27;;;16.42;;
51981;SDS011;37998;53.416;6.730;2024-01-30T07:26:22;27.15;;;16.48;;
51981;SDS011;37998;53.416;6.730;2024-01-30T07:28:48;23.60;;;16.52;;
51981;SDS011;37998;53.416;6.730;2024-01-30T07:31:15;20.73;;;15.90;;
51981;SDS011;37998;53.416;6.730;2024-01-30T07:33:41;20.52;;;15.77;;
51981;SDS011;37998;53.416;6.730;2024-01-30T07:36:07;21.80;;;16.63;;
51981;SDS011;37998;53.416;6.730;2024-01-30T07:38:33;22.88;;;16.35;;
51981;SDS011;37998;53.416;6.730;2024-01-30T07:40:59;22.17;;;16.67;;
51981;SDS011;37998;53.416;6.730;2024-01-30T07:43:25;22.02;;;16.67;;
51981;SDS011;37998;53.416;6.730;2024-01-30T07:45:51;22.98;;;16.65;;
51981;SDS011;37998;53.416;6.730;2024-01-30T07:48:17;21.83;;;15.60;;
51981;SDS011;37998;53.416;6.730;2024-01-30T07:50:43;19.88;;;15.73;;
51981;SDS011;37998;53.416;6.730;2024-01-30T07:53:09;19.88;;;16.02;;
51981;SDS011;37998;53.416;6.730;2024-01-30T07:55:35;18.58;;;15.70;;
51981;SDS011;37998;53.416;6.730;2024-01-30T07:58:01;19.00;;;16.08;;
51981;SDS011;37998;53.416;6.730;2024-01-30T08:00:27;20.15;;;16.60;;
51981;SDS011;37998;53.416;6.730;2024-01-30T08:02:54;22.45;;;16.52;;
51981;SDS011;37998;53.416;6.730;2024-01-30T08:05:20;21.70;;;16.02;;
51981;SDS011;37998;53.416;6.730;2024-01-30T08:07:50;21.40;;;15.43;;
51981;SDS011;37998;53.416;6.730;2024-01-30T08:10:17;20.60;;;16.92;;
51981;SDS011;37998;53.416;6.730;2024-01-30T08:12:45;18.83;;;15.75;;
51981;SDS011;37998;53.416;6.730;2024-01-30T08:15:11;20.08;;;15.63;;
51981;SDS011;37998;53.416;6.730;2024-01-30T08:17:38;19.83;;;14.75;;
51981;SDS011;37998;53.416;6.730;2024-01-30T08:20:04;21.63;;;15.55;;
51981;SDS011;37998;53.416;6.730;2024-01-30T08:22:31;22.38;;;15.93;;
51981;SDS011;37998;53.416;6.730;2024-01-30T08:24:57;18.70;;;16.13;;
51981;SDS011;37998;53.416;6.730;2024-01-30T08:27:23;20.60;;;15.65;;
51981;SDS011;37998;53.416;6.730;2024-01-30T08:29:48;23.23;;;16.52;;
51981;SDS011;37998;53.416;6.730;2024-01-30T08:32:15;20.23;;;16.08;;
51981;SDS011;37998;53.416;6.730;2024-01-30T08:34:41;19.98;;;15.55;;
51981;SDS011;37998;53.416;6.730;2024-01-30T08:37:07;19.13;;;15.30;;
51981;SDS011;37998;53.416;6.730;2024-01-30T08:39:33;22.27;;;15.65;;
51981;SDS011;37998;53.416;6.730;2024-01-30T08:41:59;26.25;;;15.35;;
51981;SDS011;37998;53.416;6.730;2024-01-30T08:44:25;20.10;;;15.00;;
51981;SDS011;37998;53.416;6.730;2024-01-30T08:46:52;21.50;;;14.80;;
51981;SDS011;37998;53.416;6.730;2024-01-30T08:49:19;21.75;;;15.65;;
51981;SDS011;37998;53.416;6.730;2024-01-30T08:51:45;19.95;;;15.75;;
51981;SDS011;37998;53.416;6.730;2024-01-30T08:54:12;23.52;;;16.27;;
51981;SDS011;37998;53.416;6.730;2024-01-30T08:56:37;17.52;;;14.88;;
51981;SDS011;37998;53.416;6.730;2024-01-30T08:59:06;20.42;;;15.80;;
51981;SDS011;37998;53.416;6.730;2024-01-30T09:01:32;18.50;;;14.82;;
51981;SDS011;37998;53.416;6.730;2024-01-30T09:03:58;19.13;;;15.18;;
51981;SDS011;37998;53.416;6.730;2024-01-30T09:06:23;18.05;;;15.05;;
51981;SDS011;37998;53.416;6.730;2024-01-30T09:08:51;22.27;;;15.20;;
51981;SDS011;37998;53.416;6.730;2024-01-30T09:11:17;20.55;;;14.65;;
51981;SDS011;37998;53.416;6.730;2024-01-30T09:13:44;19.27;;;15.10;;
51981;SDS011;37998;53.416;6.730;2024-01-30T09:16:10;19.70;;;14.65;;
51981;SDS011;37998;53.416;6.730;2024-01-30T09:18:36;19.88;;;15.05;;
51981;SDS011;37998;53.416;6.730;2024-01-30T09:21:02;19.85;;;15.52;;
51981;SDS011;37998;53.416;6.730;2024-01-30T09:23:28;17.13;;;14.50;;
51981;SDS011;37998;53.416;6.730;2024-01-30T09:25:54;20.95;;;16.08;;
51981;SDS011;37998;53.416;6.730;2024-01-30T09:28:20;19.85;;;14.70;;
51981;SDS011;37998;53.416;6.730;2024-01-30T09:30:46;19.02;;;14.10;;
51981;SDS011;37998;53.416;6.730;2024-01-30T09:33:12;18.75;;;15.02;;
51981;SDS011;37998;53.416;6.730;2024-01-30T09:35:38;21.45;;;15.65;;
51981;SDS011;37998;53.416;6.730;2024-01-30T09:38:03;18.70;;;15.38;;
51981;SDS011;37998;53.416;6.730;2024-01-30T09:40:29;22.83;;;14.77;;
51981;SDS011;37998;53.416;6.730;2024-01-30T09:42:55;21.60;;;14.10;;
51981;SDS011;37998;53.416;6.730;2024-01-30T09:45:25;19.48;;;15.60;;
51981;SDS011;37998;53.416;6.730;2024-01-30T09:47:51;18.77;;;14.98;;
51981;SDS011;37998;53.416;6.730;2024-01-30T09:50:18;21.75;;;14.70;;
51981;SDS011;37998;53.416;6.730;2024-01-30T09:52:45;23.52;;;14.80;;
51981;SDS011;37998;53.416;6.730;2024-01-30T09:55:12;20.92;;;15.02;;
51981;SDS011;37998;53.416;6.730;2024-01-30T09:57:38;23.33;;;15.23;;
51981;SDS011;37998;53.416;6.730;2024-01-30T10:00:05;22.23;;;15.23;;
51981;SDS011;37998;53.416;6.730;2024-01-30T10:02:39;20.38;;;15.55;;
51981;SDS011;37998;53.416;6.730;2024-01-30T10:05:05;24.52;;;14.43;;
51981;SDS011;37998;53.416;6.730;2024-01-30T10:07:31;18.05;;;14.13;;
51981;SDS011;37998;53.416;6.730;2024-01-30T10:09:57;21.60;;;15.07;;
51981;SDS011;37998;53.416;6.730;2024-01-30T10:12:25;18.42;;;14.27;;
51981;SDS011;37998;53.416;6.730;2024-01-30T10:14:51;18.08;;;14.77;;
51981;SDS011;37998;53.416;6.730;2024-01-30T10:17:17;21.85;;;15.23;;
51981;SDS011;37998;53.416;6.730;2024-01-30T10:19:43;20.50;;;14.57;;
51981;SDS011;37998;53.416;6.730;2024-01-30T10:22:10;21.60;;;15.57;;
51981;SDS011;37998;53.416;6.730;2024-01-30T10:24:36;19.90;;;15.48;;
51981;SDS011;37998;53.416;6.730;2024-01-30T10:27:02;23.45;;;15.00;;
51981;SDS011;37998;53.416;6.730;2024-01-30T10:29:28;20.13;;;14.13;;
51981;SDS011;37998;53.416;6.730;2024-01-30T10:31:58;22.83;;;14.90;;
51981;SDS011;37998;53.416;6.730;2024-01-30T10:34:28;21.38;;;15.68;;
51981;SDS011;37998;53.416;6.730;2024-01-30T10:37:10;21.25;;;15.52;;
51981;SDS011;37998;53.416;6.730;2024-01-30T10:39:41;21.95;;;15.32;;
51981;SDS011;37998;53.416;6.730;2024-01-30T10:42:15;24.10;;;15.85;;
51981;SDS011;37998;53.416;6.730;2024-01-30T10:44:48;21.52;;;15.00;;
51981;SDS011;37998;53.416;6.730;2024-01-30T10:47:35;22.92;;;15.65;;
51981;SDS011;37998;53.416;6.730;2024-01-30T10:50:02;21.55;;;14.90;;
51981;SDS011;37998;53.416;6.730;2024-01-30T10:52:29;25.80;;;13.98;;
51981;SDS011;37998;53.416;6.730;2024-01-30T10:54:56;22.92;;;15.48;;
51981;SDS011;37998;53.416;6.730;2024-01-30T10:57:23;23.30;;;14.90;;
51981;SDS011;37998;53.416;6.730;2024-01-30T10:59:51;20.23;;;13.30;;
51981;SDS011;37998;53.416;6.730;2024-01-30T11:02:20;18.88;;;14.15;;
51981;SDS011;37998;53.416;6.730;2024-01-30T11:04:49;19.92;;;14.15;;
51981;SDS011;37998;53.416;6.730;2024-01-30T11:07:15;21.08;;;14.00;;
51981;SDS011;37998;53.416;6.730;2024-01-30T11:10:03;20.83;;;15.20;;
51981;SDS011;37998;53.416;6.730;2024-01-30T11:12:31;22.80;;;14.52;;
51981;SDS011;37998;53.416;6.730;2024-01-30T11:20:10;23.77;;;13.93;;
51981;SDS011;37998;53.416;6.730;2024-01-30T11:22:37;16.35;;;9.95;;
51981;SDS011;37998;53.416;6.730;2024-01-30T11:25:03;19.05;;;9.43;;
51981;SDS011;37998;53.416;6.730;2024-01-30T11:27:30;13.70;;;9.52;;
51981;SDS011;37998;53.416;6.730;2024-01-30T11:30:01;15.93;;;8.60;;
51981;SDS011;37998;53.416;6.730;2024-01-30T11:32:28;14.60;;;8.93;;
51981;SDS011;37998;53.416;6.730;2024-01-30T11:34:54;18.90;;;8.77;;
51981;SDS011;37998;53.416;6.730;2024-01-30T11:37:20;14.63;;;8.40;;
51981;SDS011;37998;53.416;6.730;2024-01-30T11:39:50;16.92;;;7.65;;
51981;SDS011;37998;53.416;6.730;2024-01-30T11:42:16;13.10;;;7.25;;
51981;SDS011;37998;53.416;6.730;2024-01-30T11:44:50;10.77;;;6.95;;
51981;SDS011;37998;53.416;6.730;2024-01-30T11:47:16;14.68;;;6.95;;
51981;SDS011;37998;53.416;6.730;2024-01-30T11:49:43;12.65;;;6.43;;
51981;SDS011;37998;53.416;6.730;2024-01-30T11:52:09;13.55;;;6.70;;
51981;SDS011;37998;53.416;6.730;2024-01-30T11:54:35;11.13;;;6.25;;
51981;SDS011;37998;53.416;6.730;2024-01-30T11:57:04;12.05;;;6.10;;
51981;SDS011;37998;53.416;6.730;2024-01-30T11:59:30;14.23;;;6.13;;
51981;SDS011;37998;53.416;6.730;2024-01-30T12:01:56;10.88;;;5.85;;
51981;SDS011;37998;53.416;6.730;2024-01-30T12:04:27;12.55;;;5.10;;
51981;SDS011;37998;53.416;6.730;2024-01-30T12:06:54;11.80;;;4.70;;
51981;SDS011;37998;53.416;6.730;2024-01-30T12:09:20;14.07;;;5.40;;
51981;SDS011;37998;53.416;6.730;2024-01-30T12:11:47;11.82;;;5.88;;
51981;SDS011;37998;53.416;6.730;2024-01-30T12:14:15;13.68;;;5.35;;
51981;SDS011;37998;53.416;6.730;2024-01-30T12:16:42;12.00;;;5.93;;
51981;SDS011;37998;53.416;6.730;2024-01-30T12:19:08;25.90;;;5.95;;
51981;SDS011;37998;53.416;6.730;2024-01-30T12:21:34;13.30;;;5.22;;
51981;SDS011;37998;53.416;6.730;2024-01-30T12:24:01;14.05;;;4.70;;
51981;SDS011;37998;53.416;6.730;2024-01-30T12:26:27;14.77;;;4.55;;
51981;SDS011;37998;53.416;6.730;2024-01-30T12:28:54;16.80;;;5.25;;
51981;SDS011;37998;53.416;6.730;2024-01-30T12:31:31;9.82;;;4.40;;
51981;SDS011;37998;53.416;6.730;2024-01-30T12:34:01;10.07;;;4.55;;
51981;SDS011;37998;53.416;6.730;2024-01-30T12:36:28;8.15;;;3.88;;
51981;SDS011;37998;53.416;6.730;2024-01-30T12:38:56;9.93;;;3.10;;
51981;SDS011;37998;53.416;6.730;2024-01-30T12:41:22;6.90;;;2.95;;
51981;SDS011;37998;53.416;6.730;2024-01-30T12:43:53;7.47;;;2.63;;
51981;SDS011;37998;53.416;6.730;2024-01-30T12:46:19;7.95;;;2.33;;
51981;SDS011;37998;53.416;6.730;2024-01-30T12:48:45;5.90;;;1.85;;
51981;SDS011;37998;53.416;6.730;2024-01-30T12:51:11;4.53;;;1.88;;
51981;SDS011;37998;53.416;6.730;2024-01-30T12:53:37;4.28;;;2.22;;
51981;SDS011;37998;53.416;6.730;2024-01-30T12:56:03;4.47;;;2.55;;
51981;SDS011;37998;53.416;6.730;2024-01-30T12:58:29;4.65;;;1.98;;
51981;SDS011;37998;53.416;6.730;2024-01-30T13:00:55;5.72;;;2.63;;
51981;SDS011;37998;53.416;6.730;2024-01-30T13:03:21;6.82;;;2.88;;
51981;SDS011;37998;53.416;6.730;2024-01-30T13:05:47;2.53;;;1.80;;
51981;SDS011;37998;53.416;6.730;2024-01-30T13:08:13;5.50;;;1.95;;
51981;SDS011;37998;53.416;6.730;2024-01-30T13:10:39;3.10;;;1.65;;
51981;SDS011;37998;53.416;6.730;2024-01-30T13:13:05;3.92;;;1.70;;
51981;SDS011;37998;53.416;6.730;2024-01-30T13:15:30;5.22;;;1.92;;
51981;SDS011;37998;53.416;6.730;2024-01-30T13:17:56;5.82;;;1.60;;
51981;SDS011;37998;53.416;6.730;2024-01-30T13:20:22;4.45;;;1.42;;
51981;SDS011;37998;53.416;6.730;2024-01-30T13:22:48;5.97;;;1.90;;
51981;SDS011;37998;53.416;6.730;2024-01-30T13:25:17;4.22;;;1.60;;
51981;SDS011;37998;53.416;6.730;2024-01-30T13:27:43;2.63;;;1.50;;
51981;SDS011;37998;53.416;6.730;2024-01-30T13:30:09;7.43;;;1.98;;
51981;SDS011;37998;53.416;6.730;2024-01-30T13:32:35;5.30;;;1.38;;
51981;SDS011;37998;53.416;6.730;2024-01-30T13:35:02;3.55;;;1.67;;
51981;SDS011;37998;53.416;6.730;2024-01-30T13:37:28;2.55;;;1.40;;
51981;SDS011;37998;53.416;6.730;2024-01-30T13:39:55;2.38;;;1.35;;
51981;SDS011;37998;53.416;6.730;2024-01-30T13:42:24;3.33;;;1.70;;
51981;SDS011;37998;53.416;6.730;2024-01-30T13:44:50;3.70;;;1.60;;
51981;SDS011;37998;53.416;6.730;2024-01-30T13:47:16;3.88;;;1.60;;
51981;SDS011;37998;53.416;6.730;2024-01-30T13:49:44;2.08;;;1.63;;
51981;SDS011;37998;53.416;6.730;2024-01-30T13:52:10;4.13;;;1.50;;
51981;SDS011;37998;53.416;6.730;2024-01-30T13:54:35;2.88;;;1.77;;
51981;SDS011;37998;53.416;6.730;2024-01-30T13:57:01;3.78;;;1.80;;
51981;SDS011;37998;53.416;6.730;2024-01-30T13:59:27;6.22;;;2.20;;
51981;SDS011;37998;53.416;6.730;2024-01-30T14:01:53;3.97;;;1.90;;
51981;SDS011;37998;53.416;6.730;2024-01-30T14:04:19;3.42;;;1.73;;
51981;SDS011;37998;53.416;6.730;2024-01-30T14:06:45;3.85;;;1.83;;
51981;SDS011;37998;53.416;6.730;2024-01-30T14:09:11;5.10;;;1.98;;
51981;SDS011;37998;53.416;6.730;2024-01-30T14:11:37;2.65;;;1.85;;
51981;SDS011;37998;53.416;6.730;2024-01-30T14:14:03;4.68;;;2.45;;
51981;SDS011;37998;53.416;6.730;2024-01-30T14:16:28;2.80;;;1.85;;
51981;SDS011;37998;53.416;6.730;2024-01-30T14:18:54;2.60;;;2.13;;
51981;SDS011;37998;53.416;6.730;2024-01-30T14:21:20;3.28;;;1.92;;
51981;SDS011;37998;53.416;6.730;2024-01-30T14:23:46;3.63;;;2.05;;
51981;SDS011;37998;53.416;6.730;2024-01-30T14:26:12;4.45;;;2.45;;
51981;SDS011;37998;53.416;6.730;2024-01-30T14:28:38;4.10;;;2.20;;